Time;durP1;ratioP1;P1;durP2;ratioP2;P2;SDS_P1;SDS_P2;PMS_P1;PMS_P2;Temp;Humidity;BMP_temperature;BMP_pressure;BME280_temperature;BME280_humidity;BME280_pressure;Samples;Min_cycle;Max_cycle;Signal;HPM_P1;HPM_P2
2021/01/22 00:01:40;;;;;;;4.15;3.45;;;15.10;60.30;;;;;;6304062;22;20003;-77
2021/01/22 00:04:06;;;;;;;5.05;3.22;;;15.20;60.30;;;;;;6304126;22;20035;-77
2021/01/22 00:06:32;;;;;;;4.07;3.05;;;15.10;60.30;;;;;;6306412;22;19999;-75
2021/01/22 00:08:57;;;;;;;4.95;3.38;;;15.20;60.30;;;;;;6306318;22;20405;-77
2021/01/22 00:11:28;;;;;;;4.90;3.45;;;15.20;60.30;;;;;;6279081;22;20009;-77
2021/01/22 00:13:54;;;;;;;5.18;3.63;;;15.10;60.30;;;;;;6279218;22;20007;-76
2021/01/22 00:16:19;;;;;;;4.72;3.50;;;15.10;60.30;;;;;;6306519;22;20094;-76
2021/01/22 00:18:49;;;;;;;5.15;3.67;;;15.20;60.30;;;;;;6280473;22;20393;-76
2021/01/22 00:21:15;;;;;;;5.50;3.25;;;15.20;60.30;;;;;;6307898;22;20040;-76
2021/01/22 00:23:41;;;;;;;5.18;3.60;;;15.20;60.30;;;;;;6308063;22;20058;-76
2021/01/22 00:26:11;;;;;;;4.82;3.40;;;15.10;60.30;;;;;;6307659;22;20052;-76
2021/01/22 00:28:37;;;;;;;5.60;3.58;;;15.20;60.30;;;;;;6308080;22;20014;-77
2021/01/22 00:31:03;;;;;;;4.63;3.35;;;15.10;60.20;;;;;;6305265;22;20003;-76
2021/01/22 00:33:29;;;;;;;5.53;3.72;;;15.20;60.30;;;;;;6306751;22;19999;-77
2021/01/22 00:35:59;;;;;;;4.80;3.35;;;15.20;60.30;;;;;;6280506;22;20003;-77
2021/01/22 00:38:25;;;;;;;5.70;3.50;;;15.20;60.20;;;;;;6306342;22;20345;-76
2021/01/22 00:40:51;;;;;;;5.15;3.28;;;15.20;60.20;;;;;;6280230;22;20003;-76
2021/01/22 00:43:16;;;;;;;4.15;3.05;;;15.20;60.30;;;;;;6279946;22;20011;-76
2021/01/22 00:45:42;;;;;;;5.85;3.38;;;15.20;60.30;;;;;;6306767;22;20337;-76
2021/01/22 00:48:13;;;;;;;4.75;3.25;;;15.20;60.20;;;;;;6308032;22;20041;-77
2021/01/22 00:50:38;;;;;;;6.30;3.65;;;15.20;60.30;;;;;;6304327;22;20003;-76
2021/01/22 00:53:04;;;;;;;5.82;3.45;;;15.20;60.20;;;;;;6307396;22;20290;-76
2021/01/22 00:55:34;;;;;;;4.78;3.35;;;15.10;60.20;;;;;;6307143;22;20034;-76
2021/01/22 00:58:00;;;;;;;5.00;3.17;;;15.20;60.20;;;;;;6280160;22;20014;-76
2021/01/22 01:00:26;;;;;;;4.85;3.13;;;15.20;60.20;;;;;;6304828;22;19999;-77
2021/01/22 01:02:51;;;;;;;4.93;3.28;;;15.20;60.20;;;;;;6280203;22;20031;-75
2021/01/22 01:05:17;;;;;;;4.35;3.03;;;15.20;60.20;;;;;;6280058;22;20105;-76
2021/01/22 01:07:43;;;;;;;4.38;3.25;;;15.20;60.20;;;;;;6306596;22;20004;-76
2021/01/22 01:10:13;;;;;;;3.95;3.25;;;15.20;60.20;;;;;;6307796;22;19999;-76
2021/01/22 01:12:39;;;;;;;4.13;3.05;;;15.20;60.20;;;;;;6307388;22;20066;-76
2021/01/22 01:15:06;;;;;;;3.67;3.10;;;15.20;60.20;;;;;;6305203;22;20046;-76
2021/01/22 01:17:32;;;;;;;4.43;3.00;;;15.20;60.20;;;;;;6307187;22;20066;-76
2021/01/22 01:20:02;;;;;;;4.63;3.35;;;15.20;60.20;;;;;;6279484;22;19999;-76
2021/01/22 01:22:28;;;;;;;4.43;3.00;;;15.20;60.20;;;;;;6307100;22;20002;-76
2021/01/22 01:24:54;;;;;;;4.00;2.90;;;15.20;60.20;;;;;;6306072;22;19992;-76
2021/01/22 01:27:20;;;;;;;4.43;2.83;;;15.20;60.10;;;;;;6306824;22;20007;-76
2021/01/22 01:29:45;;;;;;;3.88;2.97;;;15.20;60.10;;;;;;6279819;22;20010;-76
2021/01/22 01:32:11;;;;;;;3.83;2.78;;;15.20;60.10;;;;;;6279143;22;19999;-76
2021/01/22 01:34:36;;;;;;;4.50;3.15;;;15.20;60.10;;;;;;6305459;22;20006;-76
2021/01/22 01:37:02;;;;;;;5.00;3.25;;;15.20;60.10;;;;;;6306559;22;19995;-76
2021/01/22 01:39:28;;;;;;;4.78;3.25;;;15.20;60.20;;;;;;6307346;22;19995;-76
2021/01/22 01:41:58;;;;;;;5.32;3.67;;;15.20;60.10;;;;;;6307065;22;20003;-76
2021/01/22 01:44:24;;;;;;;4.57;3.22;;;15.20;60.10;;;;;;6306553;22;20082;-76
2021/01/22 01:46:49;;;;;;;4.15;2.80;;;15.30;60.10;;;;;;6279089;22;20050;-76
2021/01/22 01:49:15;;;;;;;4.07;2.65;;;15.20;60.10;;;;;;6305566;22;20000;-76
2021/01/22 01:51:41;;;;;;;4.80;3.42;;;15.20;60.10;;;;;;6306292;22;19999;-76
2021/01/22 01:54:07;;;;;;;4.45;3.08;;;15.20;60.10;;;;;;6307168;22;19995;-76
2021/01/22 01:56:37;;;;;;;3.97;2.50;;;15.20;60.10;;;;;;6306130;22;20006;-76
2021/01/22 01:59:07;;;;;;;4.05;2.90;;;15.20;60.10;;;;;;6306048;22;20000;-76
2021/01/22 02:01:49;;;;;;;3.80;2.90;;;15.20;60.10;;;;;;6276625;22;20003;-77
2021/01/22 02:04:14;;;;;;;3.80;2.95;;;15.20;60.10;;;;;;6279210;22;19999;-76
2021/01/22 02:06:40;;;;;;;4.45;3.10;;;15.20;60.10;;;;;;6306758;22;20010;-76
2021/01/22 02:09:10;;;;;;;4.20;3.10;;;15.20;60.10;;;;;;6306606;22;20010;-76
2021/01/22 02:11:36;;;;;;;4.50;3.08;;;15.20;60.10;;;;;;6305703;22;20082;-76
2021/01/22 02:14:06;;;;;;;5.05;3.25;;;15.20;60.10;;;;;;6306185;22;20030;-76
2021/01/22 02:16:36;;;;;;;3.75;2.90;;;15.20;60.10;;;;;;6305043;22;20003;-76
2021/01/22 02:19:05;;;;;;;4.07;2.85;;;15.20;60.10;;;;;;6306592;22;20049;-76
2021/01/22 02:21:35;;;;;;;3.88;2.78;;;15.20;60.10;;;;;;6277480;22;20008;-76
2021/01/22 02:24:14;;;;;;;3.85;3.25;;;15.20;60.10;;;;;;6306931;22;20417;-75
2021/01/22 02:26:56;;;;;;;4.57;3.28;;;15.20;60.10;;;;;;6306563;22;20000;-77
2021/01/22 02:29:26;;;;;;;3.15;2.45;;;15.20;60.10;;;;;;6305807;22;20018;-76
2021/01/22 02:31:53;;;;;;;3.90;2.75;;;15.20;60.10;;;;;;6306116;22;20435;-75
2021/01/22 02:34:34;;;;;;;4.13;2.85;;;15.20;60.10;;;;;;6279432;22;20008;-76
2021/01/22 02:37:04;;;;;;;3.97;2.90;;;15.20;60.10;;;;;;6306069;22;19999;-76
2021/01/22 02:39:34;;;;;;;4.95;3.28;;;15.20;60.10;;;;;;6292329;22;20430;-76
2021/01/22 02:42:12;;;;;;;3.88;2.75;;;15.20;60.10;;;;;;6278828;22;20007;-76
2021/01/22 02:44:43;;;;;;;3.42;2.63;;;15.20;60.10;;;;;;6278977;22;20003;-76
2021/01/22 02:47:21;;;;;;;5.18;3.15;;;15.20;60.10;;;;;;6306067;22;20065;-76
2021/01/22 02:49:51;;;;;;;3.53;2.60;;;15.20;60.10;;;;;;6279083;22;20035;-76
2021/01/22 02:52:17;;;;;;;3.95;2.70;;;15.20;60.10;;;;;;6307139;22;20030;-76
2021/01/22 02:54:48;;;;;;;4.10;2.60;;;15.20;60.10;;;;;;6304836;22;20006;-76
2021/01/22 02:57:22;;;;;;;6.00;3.35;;;15.20;60.10;;;;;;6279844;22;19999;-76
2021/01/22 03:00:13;;;;;;;4.40;3.15;;;15.20;60.10;;;;;;6279439;22;20022;-76
2021/01/22 03:02:53;;;;;;;4.95;3.10;;;15.20;60.10;;;;;;6303865;22;20388;-76
2021/01/22 03:05:24;;;;;;;4.72;3.22;;;15.20;60.10;;;;;;6278614;22;20027;-75
2021/01/22 03:07:55;;;;;;;3.97;2.88;;;15.20;60.10;;;;;;6305959;22;20004;-76
2021/01/22 03:10:25;;;;;;;3.65;2.90;;;15.20;60.10;;;;;;6279087;22;20007;-76
2021/01/22 03:12:52;;;;;;;2.67;2.33;;;15.20;60.10;;;;;;6306564;22;19996;-76
2021/01/22 03:15:20;;;;;;;3.40;2.38;;;15.20;60.10;;;;;;6278416;22;20007;-76
2021/01/22 03:17:49;;;;;;;4.13;2.72;;;15.20;60.10;;;;;;6279502;22;20021;-76
2021/01/22 03:20:20;;;;;;;2.83;2.53;;;15.20;60.10;;;;;;6306321;22;19999;-76
2021/01/22 03:22:46;;;;;;;4.22;3.03;;;15.20;60.10;;;;;;6305338;22;19999;-75
2021/01/22 03:25:13;;;;;;;4.28;2.80;;;15.20;60.10;;;;;;6279728;22;20086;-76
2021/01/22 03:27:39;;;;;;;4.10;2.97;;;15.20;60.20;;;;;;6278960;22;20011;-76
2021/01/22 03:30:06;;;;;;;4.45;2.83;;;15.20;60.10;;;;;;6277943;22;19999;-76
2021/01/22 03:32:32;;;;;;;3.55;2.55;;;15.20;60.10;;;;;;6306583;22;19999;-76
2021/01/22 03:34:58;;;;;;;3.40;2.60;;;15.20;60.10;;;;;;6306195;22;20322;-76
2021/01/22 03:37:23;;;;;;;4.78;2.78;;;15.20;60.10;;;;;;6279599;22;20392;-76
2021/01/22 03:39:54;;;;;;;3.42;2.38;;;15.20;60.10;;;;;;6306756;22;19995;-75
2021/01/22 03:42:19;;;;;;;3.95;2.70;;;15.20;60.20;;;;;;6305061;22;20003;-76
2021/01/22 03:44:47;;;;;;;3.58;2.78;;;15.20;60.10;;;;;;6279563;22;20003;-76
2021/01/22 03:47:18;;;;;;;4.88;2.65;;;15.20;60.20;;;;;;6306235;22;20011;-76
2021/01/22 03:49:43;;;;;;;4.10;3.00;;;15.20;60.10;;;;;;6307448;22;20026;-76
2021/01/22 03:52:14;;;;;;;4.57;3.50;;;15.20;60.10;;;;;;6307901;22;20010;-76
2021/01/22 03:54:39;;;;;;;4.82;2.92;;;15.20;60.20;;;;;;6281443;22;20010;-76
2021/01/22 03:57:08;;;;;;;3.60;2.67;;;15.20;60.20;;;;;;6249644;22;20003;-78
2021/01/22 03:59:33;;;;;;;3.97;2.88;;;15.20;60.10;;;;;;6293964;22;19999;-76
2021/01/22 04:02:02;;;;;;;3.28;2.55;;;15.20;60.20;;;;;;6281129;22;20010;-76
2021/01/22 04:04:30;;;;;;;3.55;2.47;;;15.20;60.20;;;;;;6281154;22;20385;-76
2021/01/22 04:06:56;;;;;;;3.40;2.30;;;15.20;60.20;;;;;;6281079;22;20107;-75
2021/01/22 04:09:27;;;;;;;4.20;2.78;;;15.20;60.20;;;;;;6307544;22;20019;-77
2021/01/22 04:11:55;;;;;;;4.82;3.03;;;15.20;60.20;;;;;;6308552;22;19991;-75
2021/01/22 04:14:21;;;;;;;4.88;3.17;;;15.20;60.10;;;;;;6280690;22;20370;-76
2021/01/22 04:16:46;;;;;;;4.50;2.55;;;15.20;60.10;;;;;;6306801;22;20141;-76
2021/01/22 04:19:12;;;;;;;3.60;2.50;;;15.20;60.10;;;;;;6308017;22;20003;-76
2021/01/22 04:21:42;;;;;;;3.30;2.67;;;15.20;60.10;;;;;;6280753;22;20003;-76
2021/01/22 04:24:11;;;;;;;4.40;3.13;;;15.20;60.10;;;;;;6281316;22;20045;-77
2021/01/22 04:26:41;;;;;;;3.60;2.40;;;15.20;60.10;;;;;;6280663;22;20007;-77
2021/01/22 04:29:08;;;;;;;3.50;2.50;;;15.20;60.10;;;;;;6308109;22;20056;-76
2021/01/22 04:31:33;;;;;;;4.20;3.15;;;15.20;60.10;;;;;;6306789;22;20078;-77
2021/01/22 04:34:02;;;;;;;3.03;2.42;;;15.20;60.20;;;;;;6308151;22;20621;-76
2021/01/22 04:36:28;;;;;;;4.10;2.75;;;15.20;60.10;;;;;;6308000;22;20057;-76
2021/01/22 04:38:55;;;;;;;4.18;3.22;;;15.20;60.10;;;;;;6308279;22;20372;-76
2021/01/22 04:41:21;;;;;;;4.00;2.90;;;15.20;60.10;;;;;;6307297;22;19996;-76
2021/01/22 04:43:47;;;;;;;3.90;2.60;;;15.20;60.10;;;;;;6280660;22;20063;-77
2021/01/22 04:46:19;;;;;;;4.55;2.72;;;15.20;60.10;;;;;;6305949;22;20091;-77
2021/01/22 04:48:44;;;;;;;3.83;2.67;;;15.20;60.10;;;;;;6308471;22;20003;-77
2021/01/22 04:51:12;;;;;;;3.95;2.75;;;15.20;60.10;;;;;;6307166;22;20072;-77
2021/01/22 04:53:40;;;;;;;4.20;3.23;;;15.20;60.10;;;;;;6307925;22;19992;-77
2021/01/22 04:56:08;;;;;;;4.03;3.20;;;15.20;60.10;;;;;;6307643;22;20326;-76
2021/01/22 04:58:46;;;;;;;4.15;3.33;;;15.20;60.10;;;;;;6280239;22;20011;-77
2021/01/22 05:01:16;;;;;;;4.03;2.80;;;15.20;60.10;;;;;;6306489;22;19992;-76
2021/01/22 05:03:46;;;;;;;4.32;3.08;;;15.20;60.10;;;;;;6280356;22;20410;-77
2021/01/22 05:06:17;;;;;;;4.00;2.60;;;15.20;60.10;;;;;;6306212;22;20030;-76
2021/01/22 05:08:43;;;;;;;3.55;2.47;;;15.20;60.10;;;;;;6280410;22;20769;-77
2021/01/22 05:11:08;;;;;;;3.70;2.95;;;15.20;60.10;;;;;;6306014;22;20010;-77
2021/01/22 05:13:36;;;;;;;3.47;2.63;;;15.20;60.10;;;;;;6306002;22;20010;-77
2021/01/22 05:16:23;;;;;;;4.95;2.58;;;15.20;60.10;;;;;;6306493;22;20772;-77
2021/01/22 05:18:49;;;;;;;3.70;2.38;;;15.20;60.10;;;;;;6306307;22;19999;-77
2021/01/22 05:21:16;;;;;;;3.45;2.55;;;15.20;60.10;;;;;;6305864;22;20513;-76
2021/01/22 05:23:44;;;;;;;3.58;2.72;;;15.20;60.10;;;;;;6307234;22;20069;-76
2021/01/22 05:26:16;;;;;;;2.88;1.98;;;15.20;60.10;;;;;;6279808;22;20003;-76
2021/01/22 05:28:50;;;;;;;3.88;2.92;;;15.20;60.10;;;;;;6308202;22;20010;-77
2021/01/22 05:31:17;;;;;;;3.67;2.63;;;15.20;60.10;;;;;;6306557;22;19995;-77
2021/01/22 05:33:57;;;;;;;3.90;2.78;;;15.20;60.10;;;;;;6305307;22;20007;-76
2021/01/22 05:36:24;;;;;;;3.00;2.30;;;15.20;60.10;;;;;;6280096;22;20086;-77
2021/01/22 05:38:51;;;;;;;3.63;2.67;;;15.20;60.10;;;;;;6307929;22;20000;-76
2021/01/22 05:41:20;;;;;;;2.85;2.00;;;15.30;60.10;;;;;;6307173;22;20007;-76
2021/01/22 05:43:51;;;;;;;3.55;2.47;;;15.20;60.10;;;;;;6279796;22;20317;-77
2021/01/22 05:46:21;;;;;;;2.97;2.35;;;15.20;60.10;;;;;;6306950;22;20015;-76
2021/01/22 05:48:52;;;;;;;3.97;2.72;;;15.20;60.10;;;;;;6279977;22;20011;-76
2021/01/22 05:51:32;;;;;;;3.85;2.53;;;15.20;60.10;;;;;;6279390;22;20000;-75
2021/01/22 05:53:57;;;;;;;3.50;2.67;;;15.20;60.10;;;;;;6306453;22;20048;-77
2021/01/22 05:56:23;;;;;;;3.63;2.53;;;15.20;60.10;;;;;;6279743;22;20086;-75
2021/01/22 05:58:49;;;;;;;3.97;2.63;;;15.20;60.10;;;;;;6280326;22;20015;-75
2021/01/22 06:01:16;;;;;;;4.82;2.45;;;15.20;60.10;;;;;;6279185;22;20003;-75
2021/01/22 06:03:45;;;;;;;2.53;2.28;;;15.30;60.10;;;;;;6307739;22;20007;-78
2021/01/22 06:06:11;;;;;;;3.63;2.47;;;15.20;60.10;;;;;;6279261;22;20481;-78
2021/01/22 06:08:49;;;;;;;3.67;2.40;;;15.20;60.10;;;;;;6306892;22;20034;-77
2021/01/22 06:11:17;;;;;;;3.40;2.55;;;15.20;60.10;;;;;;6307019;22;19999;-78
2021/01/22 06:13:48;;;;;;;3.75;2.65;;;15.30;60.10;;;;;;6307072;22;19991;-77
2021/01/22 06:16:22;;;;;;;3.72;2.47;;;15.20;60.10;;;;;;6306392;22;20306;-77
2021/01/22 06:18:56;;;;;;;3.92;2.50;;;15.20;60.00;;;;;;6278873;22;20006;-77
2021/01/22 06:21:37;;;;;;;3.70;2.60;;;15.20;60.10;;;;;;6306608;22;20003;-78
2021/01/22 06:24:07;;;;;;;2.75;2.40;;;15.20;60.10;;;;;;6304795;22;20004;-78
2021/01/22 06:26:37;;;;;;;3.42;2.45;;;15.20;60.10;;;;;;6306087;22;20023;-79
2021/01/22 06:29:05;;;;;;;2.70;2.30;;;15.20;60.10;;;;;;6306700;22;20003;-78
2021/01/22 06:31:41;;;;;;;3.10;2.30;;;15.30;60.10;;;;;;6279291;22;20052;-78
2021/01/22 06:34:07;;;;;;;3.00;2.20;;;15.20;60.10;;;;;;6279699;22;20004;-78
2021/01/22 06:36:33;;;;;;;3.65;2.50;;;15.20;60.10;;;;;;6306367;22;19999;-78
2021/01/22 06:39:02;;;;;;;3.33;2.25;;;15.20;60.10;;;;;;6280003;22;20325;-78
2021/01/22 06:41:28;;;;;;;3.83;2.15;;;15.20;60.10;;;;;;6306472;22;20294;-78
2021/01/22 06:43:58;;;;;;;3.85;2.22;;;15.30;60.10;;;;;;6306881;22;19999;-77
2021/01/22 06:46:29;;;;;;;2.70;2.20;;;15.20;60.10;;;;;;6323683;22;20017;-78
2021/01/22 06:48:56;;;;;;;3.92;2.70;;;15.20;60.10;;;;;;6335093;22;20013;-78
2021/01/22 06:51:24;;;;;;;3.63;2.35;;;15.20;60.10;;;;;;6336824;22;20060;-77
2021/01/22 06:54:04;;;;;;;3.10;2.30;;;15.20;60.10;;;;;;6337288;22;19995;-78
2021/01/22 06:56:52;;;;;;;3.47;2.30;;;15.30;60.10;;;;;;6337562;22;20009;-78
2021/01/22 06:59:26;;;;;;;3.45;2.00;;;15.20;60.10;;;;;;6338347;22;19991;-77
2021/01/22 07:01:57;;;;;;;4.38;3.22;;;15.30;60.10;;;;;;6304127;22;20045;-78
2021/01/22 07:04:29;;;;;;;3.90;2.55;;;15.20;60.10;;;;;;6337214;22;20002;-78
2021/01/22 07:06:56;;;;;;;3.42;2.28;;;15.30;60.10;;;;;;6336269;22;20002;-78
2021/01/22 07:09:48;;;;;;;4.00;3.00;;;15.30;60.10;;;;;;6337521;22;20125;-78
2021/01/22 07:12:39;;;;;;;2.53;2.03;;;15.20;60.10;;;;;;6307824;22;20089;-78
2021/01/22 07:15:19;;;;;;;2.97;2.13;;;15.30;60.10;;;;;;6309437;22;20014;-78
2021/01/22 07:17:54;;;;;;;2.60;2.25;;;15.20;60.10;;;;;;6336824;22;20003;-78
2021/01/22 07:20:20;;;;;;;3.15;2.22;;;15.30;60.10;;;;;;6336923;22;19999;-77
2021/01/22 07:22:59;;;;;;;2.88;2.30;;;15.30;60.10;;;;;;6337826;22;20312;-78
2021/01/22 07:25:33;;;;;;;3.10;2.50;;;15.30;60.00;;;;;;6339678;22;19991;-78
2021/01/22 07:28:05;;;;;;;2.50;2.17;;;15.30;60.00;;;;;;6339451;22;19999;-78
2021/01/22 07:30:39;;;;;;;2.70;2.10;;;15.30;60.00;;;;;;6312120;22;20041;-80
2021/01/22 07:33:28;;;;;;;3.53;2.60;;;15.30;60.00;;;;;;6312763;22;20026;-78
2021/01/22 07:36:15;;;;;;;3.97;2.50;;;15.30;60.00;;;;;;6312544;22;20427;-78
2021/01/22 07:38:42;;;;;;;3.20;1.88;;;15.30;60.00;;;;;;6338629;22;20025;-78
2021/01/22 07:41:09;;;;;;;3.28;2.20;;;15.30;60.00;;;;;;6286617;22;20003;-79
2021/01/22 07:43:36;;;;;;;3.38;2.28;;;15.30;60.00;;;;;;6340128;22;20031;-78
2021/01/22 07:46:07;;;;;;;3.30;2.40;;;15.30;60.00;;;;;;6339450;22;20325;-78
2021/01/22 07:48:33;;;;;;;3.40;2.40;;;15.30;60.00;;;;;;6339764;22;20007;-79
2021/01/22 07:50:59;;;;;;;4.40;2.42;;;15.30;60.00;;;;;;6338714;22;20408;-77
2021/01/22 07:53:24;;;;;;;2.88;2.15;;;15.30;60.00;;;;;;6337868;22;19999;-76
2021/01/22 07:56:05;;;;;;;2.95;2.30;;;15.30;60.00;;;;;;6338664;22;20806;-76
2021/01/22 07:58:38;;;;;;;3.20;2.03;;;15.30;60.00;;;;;;6338526;22;20041;-77
2021/01/22 08:01:20;;;;;;;3.50;2.28;;;15.30;60.00;;;;;;6305913;22;20064;-76
2021/01/22 08:03:46;;;;;;;3.47;2.20;;;15.30;60.00;;;;;;6338393;22;19998;-78
2021/01/22 08:06:12;;;;;;;3.10;2.10;;;15.30;60.00;;;;;;6339210;22;19999;-78
2021/01/22 08:08:42;;;;;;;3.55;2.38;;;15.30;60.00;;;;;;6339331;22;20014;-78
2021/01/22 08:11:21;;;;;;;3.15;2.38;;;15.30;60.00;;;;;;6337808;22;20006;-75
2021/01/22 08:13:47;;;;;;;2.55;2.00;;;15.30;59.90;;;;;;6339131;22;20003;-74
2021/01/22 08:16:20;;;;;;;4.57;2.70;;;15.30;59.90;;;;;;6338181;22;20006;-76
2021/01/22 08:18:46;;;;;;;2.65;1.92;;;15.30;59.90;;;;;;6310729;22;20503;-77
2021/01/22 08:21:12;;;;;;;2.95;2.38;;;15.30;59.80;;;;;;6338489;22;20022;-74
2021/01/22 08:23:42;;;;;;;4.13;2.67;;;15.30;59.80;;;;;;6336411;22;20086;-73
2021/01/22 08:26:10;;;;;;;3.15;2.25;;;15.30;59.70;;;;;;6338183;22;20030;-74
2021/01/22 08:28:37;;;;;;;3.43;2.17;;;15.40;59.70;;;;;;6311875;22;20079;-73
2021/01/22 08:31:03;;;;;;;2.90;2.13;;;15.40;59.70;;;;;;6311648;22;20352;-75
2021/01/22 08:33:29;;;;;;;2.58;1.95;;;15.30;59.60;;;;;;6339198;22;19991;-74
2021/01/22 08:35:55;;;;;;;2.28;2.00;;;15.40;59.70;;;;;;6339304;22;20002;-74
2021/01/22 08:38:23;;;;;;;3.00;2.22;;;15.30;59.70;;;;;;6309914;22;20440;-74
2021/01/22 08:40:53;;;;;;;2.30;2.08;;;15.40;59.70;;;;;;6339184;22;20423;-75
2021/01/22 08:43:19;;;;;;;2.58;1.88;;;15.40;59.70;;;;;;6338052;22;20025;-74
2021/01/22 08:46:04;;;;;;;2.95;2.13;;;15.30;59.70;;;;;;6301805;22;20097;-74
2021/01/22 08:48:31;;;;;;;2.60;2.00;;;15.40;59.70;;;;;;6307366;22;20008;-74
2021/01/22 08:51:02;;;;;;;2.63;2.15;;;15.40;59.70;;;;;;6306642;22;19999;-74
2021/01/22 08:53:29;;;;;;;3.60;2.40;;;15.40;59.70;;;;;;6276045;22;20007;-74
2021/01/22 08:56:15;;;;;;;3.40;2.28;;;15.40;59.70;;;;;;6279490;22;20494;-74
2021/01/22 08:58:59;;;;;;;2.85;2.13;;;15.40;59.70;;;;;;6279991;22;20014;-74
2021/01/22 09:01:50;;;;;;;3.13;2.10;;;15.30;59.70;;;;;;6306275;22;20045;-74
2021/01/22 09:04:34;;;;;;;2.40;1.88;;;15.40;59.70;;;;;;6279634;22;20007;-73
2021/01/22 09:07:05;;;;;;;3.35;2.13;;;15.40;59.70;;;;;;6279981;22;20048;-75
2021/01/22 09:09:51;;;;;;;2.55;1.90;;;15.40;59.70;;;;;;6306291;22;20008;-74
2021/01/22 09:12:18;;;;;;;2.85;2.00;;;15.40;59.70;;;;;;6280048;22;20506;-75
2021/01/22 09:14:59;;;;;;;2.97;2.22;;;15.40;59.60;;;;;;6279121;22;20129;-75
2021/01/22 09:17:35;;;;;;;3.72;2.03;;;15.40;59.60;;;;;;6305717;22;20094;-75
2021/01/22 09:20:17;;;;;;;3.72;2.28;;;15.40;59.50;;;;;;6307044;22;20337;-74
2021/01/22 09:22:44;;;;;;;3.28;2.35;;;15.50;59.50;;;;;;6279919;22;20003;-74
2021/01/22 09:25:12;;;;;;;2.97;2.00;;;15.40;59.40;;;;;;6304544;22;20094;-75
2021/01/22 09:27:39;;;;;;;2.72;2.10;;;15.50;59.40;;;;;;6279362;22;20046;-75
2021/01/22 09:30:07;;;;;;;2.85;2.20;;;15.50;59.40;;;;;;6279741;22;19999;-75
2021/01/22 09:32:33;;;;;;;2.83;2.20;;;15.50;59.30;;;;;;6278968;22;20424;-75
2021/01/22 09:34:59;;;;;;;3.47;2.20;;;15.50;59.30;;;;;;6306919;22;20014;-75
2021/01/22 09:37:25;;;;;;;3.13;2.40;;;15.50;59.30;;;;;;6277100;22;20038;-75
2021/01/22 09:39:50;;;;;;;2.50;1.90;;;15.50;59.20;;;;;;6304900;22;20007;-75
2021/01/22 09:42:16;;;;;;;3.28;2.13;;;15.50;59.20;;;;;;6278455;22;19999;-74
2021/01/22 09:44:42;;;;;;;3.47;2.40;;;15.50;59.30;;;;;;6305588;22;19999;-75
2021/01/22 09:47:08;;;;;;;2.95;2.15;;;15.50;59.30;;;;;;6306126;22;20078;-75
2021/01/22 09:49:33;;;;;;;2.22;1.83;;;15.50;59.30;;;;;;6278688;22;20056;-75
2021/01/22 09:51:59;;;;;;;3.08;2.22;;;15.50;59.30;;;;;;6279125;22;20074;-75
2021/01/22 09:54:25;;;;;;;3.40;2.50;;;15.50;59.30;;;;;;6307142;22;20074;-75
2021/01/22 09:56:51;;;;;;;2.92;2.10;;;15.50;59.40;;;;;;6305912;22;20000;-75
2021/01/22 09:59:17;;;;;;;2.38;2.03;;;15.50;59.30;;;;;;6306292;22;20445;-75
2021/01/22 10:01:42;;;;;;;3.20;2.22;;;15.50;59.40;;;;;;6305163;22;19999;-75
2021/01/22 10:04:08;;;;;;;3.33;2.08;;;15.50;59.30;;;;;;6302717;22;20090;-74
2021/01/22 10:06:34;;;;;;;3.97;2.30;;;15.50;59.30;;;;;;6253857;22;20008;-75
2021/01/22 10:09:00;;;;;;;5.07;2.45;;;15.50;59.30;;;;;;6307133;22;20083;-75
2021/01/22 10:11:25;;;;;;;3.17;1.95;;;15.50;59.20;;;;;;6307357;22;20025;-75
2021/01/22 10:13:55;;;;;;;2.72;2.15;;;15.60;59.20;;;;;;6306567;22;20003;-74
2021/01/22 10:16:23;;;;;;;2.60;1.83;;;15.60;59.10;;;;;;6297077;22;19999;-74
2021/01/22 10:18:50;;;;;;;3.17;2.17;;;15.50;59.00;;;;;;6276440;22;20010;-75
2021/01/22 10:21:20;;;;;;;2.67;1.93;;;15.60;59.00;;;;;;6304536;22;20068;-75
2021/01/22 10:23:47;;;;;;;3.05;1.92;;;15.70;59.00;;;;;;6278877;22;20010;-75
2021/01/22 10:26:13;;;;;;;2.42;2.05;;;15.60;58.90;;;;;;6278433;22;20325;-76
2021/01/22 10:28:40;;;;;;;2.08;1.80;;;15.60;58.90;;;;;;6306269;22;20078;-75
2021/01/22 10:31:06;;;;;;;2.60;1.95;;;15.60;58.90;;;;;;6277215;22;20050;-74
2021/01/22 10:33:31;;;;;;;2.58;2.10;;;15.60;58.90;;;;;;6305807;22;20329;-75
2021/01/22 10:35:57;;;;;;;2.33;2.00;;;15.70;58.90;;;;;;6305791;22;20677;-74
2021/01/22 10:38:23;;;;;;;2.42;2.05;;;15.60;59.00;;;;;;6305513;22;20007;-75
2021/01/22 10:40:49;;;;;;;2.53;2.00;;;15.60;59.00;;;;;;6304640;22;19999;-74
2021/01/22 10:43:14;;;;;;;2.92;2.28;;;15.60;59.00;;;;;;6303502;22;20427;-75
2021/01/22 10:45:45;;;;;;;2.33;1.77;;;15.60;59.00;;;;;;6304980;22;20046;-75
2021/01/22 10:48:13;;;;;;;3.00;1.77;;;15.70;59.00;;;;;;6276184;22;20007;-74
2021/01/22 10:50:39;;;;;;;;;;;15.70;59.00;;;;;;6303858;22;20010;-75
2021/01/22 10:53:04;;;;;;;2.15;1.85;;;15.60;59.00;;;;;;6306737;22;19899;-74
2021/01/22 10:55:30;;;;;;;2.30;1.63;;;15.70;59.00;;;;;;6306529;22;20012;-75
2021/01/22 10:57:56;;;;;;;3.33;1.98;;;15.60;58.90;;;;;;6306315;22;20027;-75
2021/01/22 11:00:22;;;;;;;2.88;2.15;;;15.70;58.90;;;;;;6278610;22;20000;-74
2021/01/22 11:02:48;;;;;;;2.58;1.95;;;15.70;58.90;;;;;;6278137;22;20026;-74
2021/01/22 11:05:14;;;;;;;2.90;2.08;;;15.70;58.90;;;;;;6306439;22;20013;-75
2021/01/22 11:07:40;;;;;;;2.05;1.85;;;15.60;58.90;;;;;;6305848;22;19999;-75
2021/01/22 11:10:06;;;;;;;2.80;1.80;;;15.70;58.90;;;;;;6306454;22;20006;-75
2021/01/22 11:12:33;;;;;;;2.97;1.87;;;15.70;58.90;;;;;;6304971;22;20023;-75
2021/01/22 11:14:58;;;;;;;2.15;1.75;;;15.70;58.90;;;;;;6305834;22;20715;-74
2021/01/22 11:17:24;;;;;;;2.47;1.88;;;15.70;58.90;;;;;;6278688;22;20003;-74
2021/01/22 11:19:50;;;;;;;3.53;1.98;;;15.60;58.90;;;;;;6305595;22;20396;-76
2021/01/22 11:22:16;;;;;;;2.10;1.80;;;15.70;58.90;;;;;;6279180;22;20006;-75
2021/01/22 11:24:41;;;;;;;2.53;1.83;;;15.70;58.90;;;;;;6278614;22;19999;-75
2021/01/22 11:27:07;;;;;;;3.58;2.28;;;15.70;58.90;;;;;;6278234;22;20023;-74
2021/01/22 11:29:33;;;;;;;3.20;2.00;;;15.70;58.90;;;;;;6279085;22;20061;-75
2021/01/22 11:31:58;;;;;;;2.20;1.80;;;15.70;58.90;;;;;;6304401;22;20003;-75
2021/01/22 11:34:29;;;;;;;3.70;2.08;;;15.70;58.80;;;;;;6304948;22;20318;-74
2021/01/22 11:36:55;;;;;;;3.30;2.05;;;15.70;58.80;;;;;;6304329;22;19991;-75
2021/01/22 11:39:20;;;;;;;2.53;1.60;;;15.70;58.80;;;;;;6303524;22;20014;-74
2021/01/22 11:41:46;;;;;;;2.58;1.92;;;15.70;58.80;;;;;;6277433;22;20039;-74
2021/01/22 11:44:12;;;;;;;2.08;1.65;;;15.70;58.80;;;;;;6304688;22;20627;-74
2021/01/22 11:46:42;;;;;;;2.65;2.08;;;15.70;58.80;;;;;;6304640;22;20463;-75
2021/01/22 11:49:12;;;;;;;1.75;1.60;;;15.70;58.80;;;;;;6306159;22;19999;-75
2021/01/22 11:51:38;;;;;;;2.95;2.03;;;15.70;58.80;;;;;;6304620;22;19999;-74
2021/01/22 11:54:04;;;;;;;3.55;1.83;;;15.70;58.80;;;;;;6278795;22;19995;-74
2021/01/22 11:56:35;;;;;;;2.28;1.90;;;15.70;58.80;;;;;;6305172;22;20025;-75
2021/01/22 11:59:00;;;;;;;1.88;1.30;;;15.70;58.80;;;;;;6305162;22;20036;-77
2021/01/22 12:01:26;;;;;;;1.48;1.10;;;15.80;58.20;;;;;;6274863;22;20009;-74
2021/01/22 12:03:53;;;;;;;1.60;1.30;;;15.80;57.90;;;;;;6306021;22;19998;-74
2021/01/22 12:06:19;;;;;;;6.80;1.35;;;15.90;58.10;;;;;;6277008;22;20431;-75
2021/01/22 12:08:44;;;;;;;7.68;1.40;;;16.00;58.40;;;;;;6303924;22;20010;-73
2021/01/22 12:11:10;;;;;;;2.75;1.13;;;16.10;59.00;;;;;;6279002;22;20341;-73
2021/01/22 12:13:36;;;;;;;1.83;1.27;;;16.10;60.50;;;;;;6306751;22;20086;-73
2021/01/22 12:16:02;;;;;;;4.00;1.00;;;16.10;62.20;;;;;;6278066;22;20346;-73
2021/01/22 12:18:28;;;;;;;5.72;1.40;;;16.10;64.30;;;;;;6292091;22;20076;-74
2021/01/22 12:20:54;;;;;;;6.00;1.48;;;16.20;66.00;;;;;;6306201;22;20409;-74
2021/01/22 12:23:19;;;;;;;5.88;1.42;;;16.20;68.00;;;;;;6306871;22;20000;-74
2021/01/22 12:25:46;;;;;;;4.90;1.17;;;16.20;69.40;;;;;;6305995;22;19999;-75
2021/01/22 12:28:15;;;;;;;4.05;1.20;;;16.30;71.10;;;;;;6306853;22;20452;-74
2021/01/22 12:30:43;;;;;;;3.38;1.38;;;16.30;72.10;;;;;;6306543;22;20030;-75
2021/01/22 12:33:11;;;;;;;2.60;1.45;;;16.30;73.70;;;;;;6279106;22;20010;-74
2021/01/22 12:35:40;;;;;;;5.15;1.50;;;16.30;75.00;;;;;;6305040;22;20014;-75
2021/01/22 12:38:06;;;;;;;5.10;1.65;;;16.30;75.90;;;;;;6307410;22;20108;-75
2021/01/22 12:40:31;;;;;;;5.22;1.83;;;16.30;76.80;;;;;;6306485;22;20417;-75
2021/01/22 12:42:57;;;;;;;5.95;1.65;;;16.30;77.80;;;;;;6306131;22;20010;-75
2021/01/22 12:45:24;;;;;;;4.60;1.48;;;16.30;78.80;;;;;;6304996;22;20007;-75
2021/01/22 12:47:53;;;;;;;8.07;2.03;;;16.30;79.70;;;;;;6279785;22;20372;-75
2021/01/22 12:50:19;;;;;;;5.57;1.92;;;16.40;81.00;;;;;;6307637;22;20027;-75
2021/01/22 12:52:46;;;;;;;4.07;1.70;;;16.30;80.80;;;;;;6307556;22;20007;-75
2021/01/22 12:55:12;;;;;;;3.15;1.65;;;16.40;82.60;;;;;;6305825;22;20003;-75
2021/01/22 12:57:38;;;;;;;3.88;0.93;;;16.40;75.50;;;;;;6279474;22;20003;-76